地図

経路データ

SID SEASON NUMBER BASIN SUBBASIN NAME ISO_TIME NATURE LAT LON WMO_WIND WMO_PRES WMO_AGENCY TRACK_TYPE DIST2LAND LANDFALL IFLAG USA_AGENCY USA_ATCF_ID USA_LAT USA_LON USA_RECORD USA_STATUS USA_WIND USA_PRES USA_SSHS USA_R34_NE USA_R34_SE USA_R34_SW USA_R34_NW USA_R50_NE USA_R50_SE USA_R50_SW USA_R50_NW USA_R64_NE USA_R64_SE USA_R64_SW USA_R64_NW USA_POCI USA_ROCI USA_RMW USA_EYE TOKYO_LAT TOKYO_LON TOKYO_GRADE TOKYO_WIND TOKYO_PRES TOKYO_R50_DIR TOKYO_R50_LONG TOKYO_R50_SHORT TOKYO_R30_DIR TOKYO_R30_LONG TOKYO_R30_SHORT TOKYO_LAND CMA_LAT CMA_LON CMA_CAT CMA_WIND CMA_PRES HKO_LAT HKO_LON HKO_CAT HKO_WIND HKO_PRES NEWDELHI_LAT NEWDELHI_LON NEWDELHI_GRADE NEWDELHI_WIND NEWDELHI_PRES NEWDELHI_CI NEWDELHI_DP NEWDELHI_POCI REUNION_LAT REUNION_LON REUNION_TYPE REUNION_WIND REUNION_PRES REUNION_TNUM REUNION_CI REUNION_RMW REUNION_R34_NE REUNION_R34_SE REUNION_R34_SW REUNION_R34_NW REUNION_R50_NE REUNION_R50_SE REUNION_R50_SW REUNION_R50_NW REUNION_R64_NE REUNION_R64_SE REUNION_R64_SW REUNION_R64_NW BOM_LAT BOM_LON BOM_TYPE BOM_WIND BOM_PRES BOM_TNUM BOM_CI BOM_RMW BOM_R34_NE BOM_R34_SE BOM_R34_SW BOM_R34_NW BOM_R50_NE BOM_R50_SE BOM_R50_SW BOM_R50_NW BOM_R64_NE BOM_R64_SE BOM_R64_SW BOM_R64_NW BOM_ROCI BOM_POCI BOM_EYE BOM_POS_METHOD BOM_PRES_METHOD NADI_LAT NADI_LON NADI_CAT NADI_WIND NADI_PRES WELLINGTON_LAT WELLINGTON_LON WELLINGTON_WIND WELLINGTON_PRES DS824_LAT DS824_LON DS824_STAGE DS824_WIND DS824_PRES TD9636_LAT TD9636_LON TD9636_STAGE TD9636_WIND TD9636_PRES TD9635_LAT TD9635_LON TD9635_WIND TD9635_PRES TD9635_ROCI NEUMANN_LAT NEUMANN_LON NEUMANN_CLASS NEUMANN_WIND NEUMANN_PRES MLC_LAT MLC_LON MLC_CLASS MLC_WIND MLC_PRES USA_GUST BOM_GUST BOM_GUST_PER REUNION_GUST REUNION_GUST_PER USA_SEAHGT USA_SEARAD_NE USA_SEARAD_SE USA_SEARAD_SW USA_SEARAD_NW STORM_SPEED STORM_DIR
1885177N21087 1885 25 NI BB NOT_NAMED 1885-06-26 00:00:00 TS 21.4000 87.4000 main 22 11 _________O____ -1 21.4000 87.4000 TC 30 3 298
1885177N21087 1885 25 NI BB NOT_NAMED 1885-06-26 03:00:00 TS 21.4667 87.2684 main 11 0 _________PO___ -1 21.5000 87.2025 TC 30 21.4000 87.4000 1 3 298
1885177N21087 1885 25 NI BB NOT_NAMED 1885-06-26 06:00:00 TS 21.5614 87.0684 main 0 0 _________OP___ -1 21.6000 87.0000 TC 30 21.5036 87.1709 1 4 297
1885177N21087 1885 25 NI BB NOT_NAMED 1885-06-26 09:00:00 TS 21.6595 86.8614 main 0 0 _________PP___ -1 21.7000 86.7925 TC 30 21.6056 86.9533 1 4 298
1885177N21087 1885 25 NI BB NOT_NAMED 1885-06-26 12:00:00 TS 21.7524 86.6795 main 0 0 _________OP___ -1 21.8000 86.6000 TC 30 21.7048 86.7590 1 4 301
1885177N21087 1885 25 NI BB NOT_NAMED 1885-06-26 15:00:00 TS 21.8462 86.5212 main 0 0 _________PO___ -1 21.8925 86.4424 TC 30 21.8000 86.6000 1 3 306
1885177N21087 1885 25 NI BB NOT_NAMED 1885-06-26 18:00:00 TS 21.9464 86.3898 main 0 0 _________OP___ -1 22.0000 86.3000 TC 30 21.8929 86.4795 1 3 313
1885177N21087 1885 25 NI BB NOT_NAMED 1885-06-26 21:00:00 TS 22.0582 86.2767 main 0 0 _________PP___ -1 22.1198 86.1872 TC 30 21.9966 86.3662 1 4 316
1885177N21087 1885 25 NI BB NOT_NAMED 1885-06-27 00:00:00 TS 22.2135 86.1099 main 0 0 _________OP___ -1 22.3000 86.0000 TC 30 22.1271 86.2199 1 6 312
1885177N21087 1885 25 NI BB NOT_NAMED 1885-06-27 03:00:00 TS 22.4425 85.8226 main 0 0 _________PO___ -1 22.5851 85.6452 TC 30 22.3000 86.0000 1 8 308
1885177N21087 1885 25 NI BB NOT_NAMED 1885-06-27 06:00:00 TS 22.7141 85.4272 main 0 0 _________OP___ -1 22.9000 85.2000 TC 30 22.5282 85.6545 1 9 305
1885177N21087 1885 25 NI BB NOT_NAMED 1885-06-27 09:00:00 TS 22.9740 84.9914 main 0 0 _________PP___ -1 23.1500 84.7498 TC 30 22.7981 85.2330 1 10 303
1885177N21087 1885 25 NI BB NOT_NAMED 1885-06-27 12:00:00 TS 23.2469 84.5350 main 0 0 _________OP___ -1 23.4000 84.3000 TC 30 23.0938 84.7699 1 10 305
1885177N21087 1885 25 NI BB NOT_NAMED 1885-06-27 15:00:00 TS 23.5461 84.0999 main 0 0 _________PO___ -1 23.6923 83.8998 TC 30 23.4000 84.3000 1 10 308
1885177N21087 1885 25 NI BB NOT_NAMED 1885-06-27 18:00:00 TS 23.8377 83.7069 main 0 0 _________OP___ -1 24.0000 83.5000 TC 30 23.6753 83.9139 1 9 308
1885177N21087 1885 25 NI BB NOT_NAMED 1885-06-27 21:00:00 TS 24.1226 83.3046 main 0 0 _________PP___ -1 24.2846 83.0869 TC 30 23.9606 83.5222 1 10 307
1885177N21087 1885 25 NI BB NOT_NAMED 1885-06-28 00:00:00 TS 24.4328 82.8473 main 0 0 _________OP___ -1 24.6000 82.6000 TC 30 24.2656 83.0946 1 11 306
1885177N21087 1885 25 NI BB NOT_NAMED 1885-06-28 03:00:00 TS 24.7925 82.2937 main 0 0 _________PO___ -1 24.9850 81.9874 TC 30 24.6000 82.6000 1 13 305
1885177N21087 1885 25 NI BB NOT_NAMED 1885-06-28 06:00:00 TS 25.1859 81.6466 main 0 0 _________OP___ -1 25.4000 81.3000 TC 30 24.9719 81.9932 1 14 303
1885177N21087 1885 25 NI BB NOT_NAMED 1885-06-28 09:00:00 TS 25.5853 80.9588 main 0 0 _________PP___ -1 25.7999 80.5997 TC 30 25.3708 81.3178 1 15 303
1885177N21087 1885 25 NI BB NOT_NAMED 1885-06-28 12:00:00 TS 25.9921 80.2542 main 0 0 _________OP___ -1 26.2000 79.9000 TC 30 25.7842 80.6084 1 15 303
1885177N21087 1885 25 NI BB NOT_NAMED 1885-06-28 15:00:00 TS 26.3998 79.5710 main 0 0 _________PO___ -1 26.5996 79.2420 TC 30 26.2000 79.9000 1 14 304
1885177N21087 1885 25 NI BB NOT_NAMED 1885-06-28 18:00:00 TS 26.7766 78.9546 main 0 0 _________OP___ -1 27.0000 78.6000 TC 30 26.6090 79.2206 1 14 305
1885177N21087 1885 25 NI BB NOT_NAMED 1885-06-28 21:00:00 TS 27.1669 78.3219 main 0 0 _________PP___ -1 27.4007 77.9535 TC 30 27.0110 78.5676 1 13 305
1885177N21087 1885 25 NI AS NOT_NAMED 1885-06-29 00:00:00 TS 27.5384 77.7205 main 0 0 _________OP___ -1 27.8000 77.3000 TC 30 27.4075 77.9308 1 11 305
1885177N21087 1885 25 NI AS NOT_NAMED 1885-06-29 03:00:00 NR 27.8000 77.3000 main 0 __________O___ -1 TC 27.8000 77.3000 1 9 305

IBTrACS Databaseについて

本データベースは、米国NOAAが公開する1842年以降の世界の熱帯低気圧のベストトラックデータアーカイブInternational Best Track Archive for Climate Stewardship (IBTrACS)を、ウェブで閲覧しやすい形式に変換したものです。

最終更新日:2021-10-27